createdAt,value
2023-03-04T00:00:36.700Z,67.23
2023-03-04T00:10:40.661Z,67.20
2023-03-04T00:13:20.716Z,67.23
2023-03-04T00:15:56.020Z,67.25
2023-03-04T00:18:29.672Z,66.88
2023-03-04T00:21:03.493Z,67.10
2023-03-04T00:23:36.691Z,66.95
2023-03-04T00:37:26.685Z,67.23
2023-03-04T00:39:59.969Z,66.97
2023-03-04T00:42:33.715Z,67.24
2023-03-04T00:45:09.360Z,66.95
2023-03-04T00:47:42.688Z,67.07
2023-03-04T00:50:16.569Z,67.16
2023-03-04T01:06:31.696Z,67.14
2023-03-04T01:09:05.702Z,67.07
2023-03-04T01:11:38.696Z,67.02
2023-03-04T01:14:11.964Z,67.13
2023-03-04T01:16:45.690Z,66.86
2023-03-04T01:19:19.262Z,66.88
2023-03-04T01:32:09.702Z,67.03
2023-03-04T01:34:49.916Z,67.04
2023-03-04T01:37:23.351Z,66.96
2023-03-04T01:39:56.664Z,67.05
2023-03-04T01:42:34.323Z,67.24
2023-03-04T01:45:22.698Z,67.21
2023-03-04T01:58:37.685Z,67.07
2023-03-04T02:01:16.938Z,67.32
2023-03-04T02:03:56.710Z,67.26
2023-03-04T02:06:30.392Z,67.01
2023-03-04T02:09:04.686Z,67.39
2023-03-04T02:11:38.961Z,67.42
2023-03-04T02:14:15.681Z,67.37
2023-03-04T02:24:33.646Z,67.05
2023-03-04T02:27:15.653Z,67.18
2023-03-04T02:29:49.404Z,67.08
2023-03-04T02:32:22.764Z,67.24
2023-03-04T02:34:56.670Z,67.25
2023-03-04T02:37:30.489Z,67.07
2023-03-04T02:40:09.795Z,67.31
2023-03-04T02:53:06.632Z,67.12
2023-03-04T02:55:46.669Z,67.04
2023-03-04T02:58:22.422Z,67.05
2023-03-04T03:00:55.665Z,67.05
2023-03-04T03:03:29.903Z,67.10
2023-03-04T03:19:45.660Z,67.04
2023-03-04T03:22:19.050Z,66.99
2023-03-04T03:24:52.652Z,67.10
2023-03-04T03:27:25.991Z,66.96
2023-03-04T03:29:59.656Z,67.00
2023-03-04T03:32:36.039Z,66.90
2023-03-04T03:35:18.736Z,66.87
2023-03-04T03:45:03.619Z,66.94
2023-03-04T03:47:43.645Z,67.00
2023-03-04T03:50:19.055Z,66.83
2023-03-04T03:52:52.633Z,66.81
2023-03-04T03:55:26.152Z,67.01
2023-03-04T03:57:59.636Z,66.85
2023-03-04T04:00:33.058Z,66.96
2023-03-04T04:13:23.609Z,67.00
2023-03-04T04:16:03.702Z,67.04
2023-03-04T04:18:37.256Z,67.07
2023-03-04T04:21:11.673Z,66.90
2023-03-04T04:23:45.036Z,66.86
2023-03-04T04:40:00.656Z,66.78
2023-03-04T04:42:33.924Z,66.70
2023-03-04T04:45:08.894Z,66.75
2023-03-04T04:47:41.957Z,66.87
2023-03-04T04:50:20.648Z,66.98
2023-03-04T04:52:53.878Z,66.80
2023-03-04T04:55:28.667Z,66.87
2023-03-04T05:05:14.603Z,66.78
2023-03-04T05:07:54.635Z,67.02
2023-03-04T05:10:36.334Z,67.12
2023-03-04T05:13:09.643Z,66.96
2023-03-04T05:15:43.005Z,67.05
2023-03-04T05:18:16.646Z,67.06
2023-03-04T05:31:43.646Z,66.99
2023-03-04T05:34:17.252Z,67.13
2023-03-04T05:36:50.636Z,66.94
2023-03-04T05:39:23.866Z,67.00
2023-03-04T05:41:57.625Z,66.86
2023-03-04T05:44:30.889Z,66.99
2023-03-04T06:00:45.642Z,66.98
2023-03-04T06:03:22.920Z,67.09
2023-03-04T06:06:02.644Z,66.98
2023-03-04T06:08:35.970Z,67.13
2023-03-04T06:11:09.635Z,66.99
2023-03-04T06:13:42.877Z,67.25
2023-03-04T06:26:32.604Z,67.38
2023-03-04T06:29:12.625Z,67.21
2023-03-04T06:31:46.000Z,67.22
2023-03-04T06:34:19.626Z,67.31
2023-03-04T06:36:52.859Z,67.47
2023-03-04T06:39:26.642Z,67.73
2023-03-04T06:52:38.841Z,67.47
2023-03-04T06:55:11.980Z,67.51
2023-03-04T06:57:48.413Z,67.62
2023-03-04T07:00:22.867Z,67.88
2023-03-04T07:02:56.594Z,67.95
2023-03-04T07:05:29.925Z,68.05
2023-03-04T07:18:43.585Z,68.24
2023-03-04T07:21:24.595Z,68.51
2023-03-04T07:23:57.850Z,68.50
2023-03-04T07:26:31.607Z,68.57
2023-03-04T07:29:05.824Z,68.60
2023-03-04T07:31:42.720Z,68.89
2023-03-04T07:34:18.048Z,68.80
2023-03-04T07:47:06.594Z,69.07
2023-03-04T07:49:48.631Z,69.32
2023-03-04T07:52:21.880Z,68.97
2023-03-04T07:54:56.435Z,69.40
2023-03-04T07:57:29.829Z,69.31
2023-03-04T08:00:03.616Z,69.35
2023-03-04T08:13:18.611Z,69.35
2023-03-04T08:15:52.021Z,69.14
2023-03-04T08:18:25.599Z,69.27
2023-03-04T08:20:59.022Z,69.46
2023-03-04T08:23:32.683Z,69.19
2023-03-04T08:40:09.560Z,69.21
2023-03-04T08:42:49.611Z,69.17
2023-03-04T08:45:22.988Z,69.29
2023-03-04T08:47:57.616Z,69.41
2023-03-04T08:50:30.906Z,69.60
2023-03-04T08:53:05.610Z,69.55
2023-03-04T08:55:42.458Z,69.60
2023-03-04T09:05:39.595Z,69.78
2023-03-04T09:08:13.323Z,69.75
2023-03-04T09:10:49.583Z,69.84
2023-03-04T09:13:26.281Z,69.61
2023-03-04T09:16:06.638Z,69.85
2023-03-04T09:18:40.898Z,70.01
2023-03-04T09:32:16.603Z,69.56
2023-03-04T09:34:58.604Z,69.47
2023-03-04T09:37:32.117Z,69.92
2023-03-04T09:40:05.588Z,69.90
2023-03-04T09:42:48.257Z,69.73
2023-03-04T09:45:35.572Z,70.12
2023-03-04T09:59:21.416Z,70.36
2023-03-04T10:01:58.675Z,69.99
2023-03-04T10:04:46.618Z,69.95
2023-03-04T10:07:26.745Z,70.23
2023-03-04T10:10:11.586Z,70.11
2023-03-04T10:12:50.653Z,70.23
2023-03-04T10:15:43.587Z,70.07
2023-03-04T10:25:56.583Z,69.53
2023-03-04T10:28:38.562Z,69.82
2023-03-04T10:31:21.133Z,69.94
2023-03-04T10:34:01.572Z,69.75
2023-03-04T10:36:53.212Z,69.61
2023-03-04T10:39:37.571Z,69.61
2023-03-04T10:52:55.594Z,69.43
2023-03-04T10:55:42.328Z,69.50
2023-03-04T10:58:23.573Z,69.66
2023-03-04T11:01:03.728Z,69.31
2023-03-04T11:03:43.650Z,69.14
2023-03-04T11:20:32.517Z,69.02
2023-03-04T11:23:23.555Z,69.13
2023-03-04T11:26:03.645Z,69.44
2023-03-04T11:28:55.530Z,69.52
2023-03-04T11:31:37.939Z,69.30
2023-03-04T11:34:34.540Z,69.22
2023-03-04T11:48:09.569Z,69.41
2023-03-04T11:50:51.051Z,69.48
2023-03-04T11:53:43.569Z,69.45
2023-03-04T11:56:37.340Z,69.49
2023-03-04T11:59:55.553Z,69.40
2023-03-04T12:13:50.547Z,70.24
2023-03-04T12:17:08.401Z,69.92
2023-03-04T12:20:21.773Z,69.97
2023-03-04T12:23:12.109Z,69.90
2023-03-04T12:26:04.560Z,69.91
2023-03-04T12:29:03.862Z,69.73
2023-03-04T12:42:17.536Z,69.36
2023-03-04T12:45:14.541Z,69.19
2023-03-04T12:48:08.869Z,69.09
2023-03-04T12:51:01.566Z,68.84
2023-03-04T12:53:47.768Z,68.75
2023-03-04T13:06:54.656Z,68.44
2023-03-04T13:09:41.402Z,68.53
2023-03-04T13:12:22.599Z,68.45
2023-03-04T13:15:37.544Z,68.38
2023-03-04T13:18:35.634Z,68.29
2023-03-04T13:34:59.540Z,68.23
2023-03-04T13:37:34.845Z,68.23
2023-03-04T13:40:38.543Z,68.28
2023-03-04T13:43:27.132Z,67.89
2023-03-04T13:46:46.601Z,68.20
2023-03-04T13:49:23.017Z,68.22
2023-03-04T14:02:22.510Z,67.91
2023-03-04T14:05:06.517Z,68.13
2023-03-04T14:07:39.753Z,68.22
2023-03-04T14:10:27.617Z,68.21
2023-03-04T14:13:00.874Z,68.06
2023-03-04T14:15:41.529Z,68.03
2023-03-04T14:28:56.548Z,68.41
2023-03-04T14:31:35.526Z,68.45
2023-03-04T14:34:31.537Z,68.61
2023-03-04T14:37:21.842Z,68.69
2023-03-04T14:40:04.536Z,68.78
2023-03-04T14:53:30.540Z,69.22
2023-03-04T14:56:06.925Z,69.35
2023-03-04T14:58:42.533Z,69.71
2023-03-04T15:01:19.826Z,69.69
2023-03-04T15:04:06.609Z,69.82
2023-03-04T15:06:50.957Z,69.89
2023-03-04T15:09:34.529Z,69.74
2023-03-04T15:20:04.500Z,69.60
2023-03-04T15:23:09.506Z,69.67
2023-03-04T15:25:44.722Z,69.73
2023-03-04T15:28:24.522Z,69.68
2023-03-04T15:30:57.860Z,69.97
2023-03-04T15:33:31.523Z,70.00
2023-03-04T15:36:05.964Z,69.61
2023-03-04T15:48:56.477Z,67.93
2023-03-04T15:51:36.518Z,68.29
2023-03-04T15:54:13.217Z,68.51
2023-03-04T15:56:53.537Z,68.37
2023-03-04T15:59:27.160Z,68.69
2023-03-04T16:15:42.610Z,68.89
2023-03-04T16:18:17.287Z,68.68
2023-03-04T16:20:58.623Z,68.62
2023-03-04T16:23:39.514Z,68.56
2023-03-04T16:26:23.519Z,68.54
2023-03-04T16:28:56.769Z,68.49
2023-03-04T16:41:46.461Z,68.59
2023-03-04T16:44:26.512Z,68.61
2023-03-04T16:46:59.761Z,68.80
2023-03-04T16:49:33.504Z,68.64
2023-03-04T16:52:16.529Z,68.69
2023-03-04T16:54:56.500Z,68.72
2023-03-04T17:08:18.476Z,68.73
2023-03-04T17:10:52.280Z,68.99
2023-03-04T17:13:25.493Z,68.83
2023-03-04T17:16:00.616Z,68.85
2023-03-04T17:18:34.510Z,68.88
2023-03-04T17:35:04.474Z,68.65
2023-03-04T17:37:44.497Z,68.65
2023-03-04T17:40:18.235Z,68.81
2023-03-04T17:42:51.499Z,68.71
2023-03-04T17:45:24.790Z,68.61
2023-03-04T17:47:58.505Z,68.56
2023-03-04T17:50:33.786Z,68.60
2023-03-04T18:00:41.585Z,68.18
2023-03-04T18:03:15.327Z,68.14
2023-03-04T18:05:50.486Z,67.93
2023-03-04T18:08:24.226Z,67.97
2023-03-04T18:10:57.526Z,68.03
2023-03-04T18:13:30.857Z,67.95
2023-03-04T18:16:04.525Z,67.92
2023-03-04T18:29:24.803Z,67.58
2023-03-04T18:31:57.837Z,67.64
2023-03-04T18:34:31.500Z,67.61
2023-03-04T18:37:04.784Z,67.49
2023-03-04T18:39:38.536Z,67.44
2023-03-04T18:56:20.457Z,67.07
2023-03-04T18:59:01.466Z,67.07
2023-03-04T19:01:35.126Z,67.29
2023-03-04T19:04:09.516Z,67.24
2023-03-04T19:06:43.184Z,67.36
2023-03-04T19:09:16.512Z,67.36
2023-03-04T19:22:28.484Z,67.05
2023-03-04T19:25:01.820Z,67.03
2023-03-04T19:27:35.469Z,67.01
2023-03-04T19:30:10.692Z,66.88
2023-03-04T19:32:45.155Z,67.05
2023-03-04T19:35:19.003Z,67.04
2023-03-04T19:48:09.446Z,66.90
2023-03-04T19:50:49.449Z,66.92
2023-03-04T19:53:22.728Z,67.04
2023-03-04T19:56:01.470Z,67.07
2023-03-04T19:58:34.821Z,66.92
2023-03-04T20:01:08.480Z,66.94
2023-03-04T20:14:29.478Z,66.89
2023-03-04T20:17:05.282Z,66.90
2023-03-04T20:19:40.473Z,67.00
2023-03-04T20:22:13.763Z,66.90
2023-03-04T20:24:47.463Z,66.80
2023-03-04T20:27:20.836Z,66.70
2023-03-04T20:29:56.448Z,66.54
2023-03-04T20:43:06.460Z,66.38
2023-03-04T20:45:41.590Z,66.34
2023-03-04T20:48:14.457Z,66.29
2023-03-04T20:50:47.710Z,66.23
2023-03-04T20:53:21.505Z,66.03
2023-03-04T20:55:54.707Z,66.08
2023-03-04T21:08:44.408Z,65.68
2023-03-04T21:11:24.444Z,65.62
2023-03-04T21:13:57.681Z,65.83
2023-03-04T21:16:35.083Z,65.58
2023-03-04T21:19:16.657Z,65.31
2023-03-04T21:35:38.470Z,65.06
2023-03-04T21:38:11.789Z,65.02
2023-03-04T21:40:46.309Z,64.91
2023-03-04T21:43:19.709Z,64.81
2023-03-04T21:45:58.471Z,64.89
2023-03-04T21:48:31.950Z,64.76
2023-03-04T21:51:11.481Z,64.68
2023-03-04T22:01:32.454Z,64.59
2023-03-04T22:04:12.483Z,64.44
2023-03-04T22:06:47.698Z,64.32
2023-03-04T22:09:21.476Z,64.63
2023-03-04T22:11:54.888Z,64.33
2023-03-04T22:14:28.523Z,64.50
2023-03-04T22:28:12.487Z,64.47
2023-03-04T22:30:52.713Z,64.28
2023-03-04T22:33:26.481Z,64.47
2023-03-04T22:35:59.742Z,64.23
2023-03-04T22:38:33.480Z,64.59
2023-03-04T22:41:13.308Z,64.33
2023-03-04T22:43:57.303Z,64.61
2023-03-04T22:57:07.461Z,64.36
2023-03-04T22:59:42.748Z,64.54
2023-03-04T23:02:16.512Z,64.56
2023-03-04T23:04:49.796Z,64.69
2023-03-04T23:07:23.489Z,64.52
2023-03-04T23:09:56.996Z,64.76
2023-03-04T23:22:47.428Z,64.97
2023-03-04T23:25:27.444Z,64.96
2023-03-04T23:28:00.834Z,65.04
2023-03-04T23:30:34.509Z,65.07
2023-03-04T23:33:07.834Z,64.91
2023-03-04T23:35:41.553Z,65.20
2023-03-04T23:48:54.308Z,65.38
2023-03-04T23:51:29.934Z,65.21
2023-03-04T23:54:10.455Z,65.25
2023-03-04T23:56:43.789Z,65.42
2023-03-04T23:59:17.452Z,65.42
